sensor_id;sensor_type;location;lat;lon;timestamp;P1;durP1;ratioP1;P2;durP2;ratioP2
26375;SDS011;30544;42.196;24.336;2023-05-10T00:00:23;20.10;;;9.40;;
26375;SDS011;30544;42.196;24.336;2023-05-10T00:02:50;22.52;;;8.73;;
26375;SDS011;30544;42.196;24.336;2023-05-10T00:05:16;25.08;;;10.45;;
26375;SDS011;30544;42.196;24.336;2023-05-10T00:07:43;25.15;;;9.82;;
26375;SDS011;30544;42.196;24.336;2023-05-10T00:10:09;24.67;;;10.60;;
26375;SDS011;30544;42.196;24.336;2023-05-10T00:12:36;25.90;;;9.82;;
26375;SDS011;30544;42.196;24.336;2023-05-10T00:15:04;22.38;;;9.93;;
26375;SDS011;30544;42.196;24.336;2023-05-10T00:17:31;23.10;;;9.65;;
26375;SDS011;30544;42.196;24.336;2023-05-10T00:19:58;27.25;;;11.00;;
26375;SDS011;30544;42.196;24.336;2023-05-10T00:22:24;30.33;;;11.13;;
26375;SDS011;30544;42.196;24.336;2023-05-10T00:24:50;26.27;;;11.20;;
26375;SDS011;30544;42.196;24.336;2023-05-10T00:27:17;24.67;;;11.18;;
26375;SDS011;30544;42.196;24.336;2023-05-10T00:29:43;24.98;;;10.80;;
26375;SDS011;30544;42.196;24.336;2023-05-10T00:32:11;29.85;;;11.55;;
26375;SDS011;30544;42.196;24.336;2023-05-10T00:34:39;36.30;;;12.20;;
26375;SDS011;30544;42.196;24.336;2023-05-10T00:37:05;30.10;;;12.30;;
26375;SDS011;30544;42.196;24.336;2023-05-10T00:39:32;27.15;;;10.63;;
26375;SDS011;30544;42.196;24.336;2023-05-10T00:41:58;33.22;;;12.13;;
26375;SDS011;30544;42.196;24.336;2023-05-10T00:44:25;22.27;;;10.75;;
26375;SDS011;30544;42.196;24.336;2023-05-10T00:46:51;26.98;;;11.45;;
26375;SDS011;30544;42.196;24.336;2023-05-10T00:49:20;40.08;;;13.30;;
26375;SDS011;30544;42.196;24.336;2023-05-10T00:51:46;33.38;;;12.35;;
26375;SDS011;30544;42.196;24.336;2023-05-10T00:54:14;29.67;;;11.32;;
26375;SDS011;30544;42.196;24.336;2023-05-10T00:56:40;42.00;;;13.50;;
26375;SDS011;30544;42.196;24.336;2023-05-10T00:59:08;33.97;;;12.82;;
26375;SDS011;30544;42.196;24.336;2023-05-10T01:01:35;34.40;;;12.35;;
26375;SDS011;30544;42.196;24.336;2023-05-10T01:04:02;37.55;;;12.20;;
26375;SDS011;30544;42.196;24.336;2023-05-10T01:06:30;34.13;;;13.10;;
26375;SDS011;30544;42.196;24.336;2023-05-10T01:08:57;23.60;;;11.30;;
26375;SDS011;30544;42.196;24.336;2023-05-10T01:11:23;22.58;;;9.90;;
26375;SDS011;30544;42.196;24.336;2023-05-10T01:13:51;28.15;;;10.88;;
26375;SDS011;30544;42.196;24.336;2023-05-10T01:16:18;32.13;;;11.73;;
26375;SDS011;30544;42.196;24.336;2023-05-10T01:18:45;37.28;;;13.25;;
26375;SDS011;30544;42.196;24.336;2023-05-10T01:21:17;30.52;;;11.80;;
26375;SDS011;30544;42.196;24.336;2023-05-10T01:23:52;32.42;;;12.10;;
26375;SDS011;30544;42.196;24.336;2023-05-10T01:26:30;30.77;;;11.02;;
26375;SDS011;30544;42.196;24.336;2023-05-10T01:29:11;33.92;;;11.88;;
26375;SDS011;30544;42.196;24.336;2023-05-10T01:34:32;24.60;;;9.95;;
26375;SDS011;30544;42.196;24.336;2023-05-10T01:37:02;33.97;;;11.10;;
26375;SDS011;30544;42.196;24.336;2023-05-10T01:39:31;28.95;;;10.63;;
26375;SDS011;30544;42.196;24.336;2023-05-10T01:41:59;98.80;;;24.02;;
26375;SDS011;30544;42.196;24.336;2023-05-10T01:44:29;41.55;;;11.02;;
26375;SDS011;30544;42.196;24.336;2023-05-10T01:46:58;30.90;;;10.82;;
26375;SDS011;30544;42.196;24.336;2023-05-10T01:49:29;36.53;;;11.45;;
26375;SDS011;30544;42.196;24.336;2023-05-10T01:51:59;31.35;;;11.75;;
26375;SDS011;30544;42.196;24.336;2023-05-10T01:54:26;33.17;;;10.18;;
26375;SDS011;30544;42.196;24.336;2023-05-10T01:56:55;38.67;;;11.88;;
26375;SDS011;30544;42.196;24.336;2023-05-10T01:59:22;32.58;;;12.85;;
26375;SDS011;30544;42.196;24.336;2023-05-10T02:01:50;35.85;;;12.52;;
26375;SDS011;30544;42.196;24.336;2023-05-10T02:04:17;47.60;;;14.95;;
26375;SDS011;30544;42.196;24.336;2023-05-10T02:06:45;38.15;;;13.40;;
26375;SDS011;30544;42.196;24.336;2023-05-10T02:09:14;35.85;;;12.77;;
26375;SDS011;30544;42.196;24.336;2023-05-10T02:14:09;41.97;;;13.32;;
26375;SDS011;30544;42.196;24.336;2023-05-10T02:16:36;44.50;;;14.07;;
26375;SDS011;30544;42.196;24.336;2023-05-10T02:19:04;42.15;;;13.68;;
26375;SDS011;30544;42.196;24.336;2023-05-10T02:21:31;32.35;;;12.57;;
26375;SDS011;30544;42.196;24.336;2023-05-10T02:23:58;33.95;;;12.23;;
26375;SDS011;30544;42.196;24.336;2023-05-10T02:26:26;19.30;;;10.60;;
26375;SDS011;30544;42.196;24.336;2023-05-10T02:28:53;18.40;;;9.90;;
26375;SDS011;30544;42.196;24.336;2023-05-10T02:31:20;27.95;;;11.57;;
26375;SDS011;30544;42.196;24.336;2023-05-10T02:33:47;39.83;;;14.07;;
26375;SDS011;30544;42.196;24.336;2023-05-10T02:36:14;40.55;;;11.90;;
26375;SDS011;30544;42.196;24.336;2023-05-10T02:38:41;35.47;;;12.95;;
26375;SDS011;30544;42.196;24.336;2023-05-10T02:41:07;36.03;;;13.52;;
26375;SDS011;30544;42.196;24.336;2023-05-10T02:43:36;26.10;;;11.35;;
26375;SDS011;30544;42.196;24.336;2023-05-10T02:46:04;35.78;;;12.85;;
26375;SDS011;30544;42.196;24.336;2023-05-10T02:48:30;35.90;;;11.70;;
26375;SDS011;30544;42.196;24.336;2023-05-10T02:50:59;30.75;;;11.05;;
26375;SDS011;30544;42.196;24.336;2023-05-10T02:53:30;36.58;;;12.52;;
26375;SDS011;30544;42.196;24.336;2023-05-10T02:55:58;34.58;;;13.00;;
26375;SDS011;30544;42.196;24.336;2023-05-10T02:58:25;36.75;;;12.02;;
26375;SDS011;30544;42.196;24.336;2023-05-10T03:00:53;46.42;;;13.05;;
26375;SDS011;30544;42.196;24.336;2023-05-10T03:03:20;33.45;;;12.27;;
26375;SDS011;30544;42.196;24.336;2023-05-10T03:05:47;41.15;;;14.35;;
26375;SDS011;30544;42.196;24.336;2023-05-10T03:08:13;40.78;;;12.88;;
26375;SDS011;30544;42.196;24.336;2023-05-10T03:10:41;40.20;;;13.43;;
26375;SDS011;30544;42.196;24.336;2023-05-10T03:13:12;42.00;;;13.95;;
26375;SDS011;30544;42.196;24.336;2023-05-10T03:15:44;33.92;;;12.15;;
26375;SDS011;30544;42.196;24.336;2023-05-10T03:18:15;39.65;;;12.55;;
26375;SDS011;30544;42.196;24.336;2023-05-10T03:20:46;34.55;;;12.32;;
26375;SDS011;30544;42.196;24.336;2023-05-10T03:23:19;44.20;;;13.90;;
26375;SDS011;30544;42.196;24.336;2023-05-10T03:25:48;41.55;;;11.75;;
26375;SDS011;30544;42.196;24.336;2023-05-10T03:28:15;35.72;;;12.10;;
26375;SDS011;30544;42.196;24.336;2023-05-10T03:30:42;32.00;;;11.73;;
26375;SDS011;30544;42.196;24.336;2023-05-10T03:33:09;34.17;;;12.40;;
26375;SDS011;30544;42.196;24.336;2023-05-10T03:35:37;32.92;;;11.98;;
26375;SDS011;30544;42.196;24.336;2023-05-10T03:38:03;44.97;;;13.50;;
26375;SDS011;30544;42.196;24.336;2023-05-10T03:40:30;33.38;;;11.23;;
26375;SDS011;30544;42.196;24.336;2023-05-10T03:42:57;163.25;;;37.40;;
26375;SDS011;30544;42.196;24.336;2023-05-10T03:45:23;33.95;;;11.38;;
26375;SDS011;30544;42.196;24.336;2023-05-10T03:47:50;30.90;;;11.20;;
26375;SDS011;30544;42.196;24.336;2023-05-10T03:50:16;35.83;;;13.65;;
26375;SDS011;30544;42.196;24.336;2023-05-10T03:52:44;38.28;;;13.60;;
26375;SDS011;30544;42.196;24.336;2023-05-10T03:55:11;29.45;;;11.95;;
26375;SDS011;30544;42.196;24.336;2023-05-10T03:57:37;26.08;;;11.07;;
26375;SDS011;30544;42.196;24.336;2023-05-10T04:00:04;32.50;;;12.25;;
26375;SDS011;30544;42.196;24.336;2023-05-10T04:02:31;62.30;;;18.05;;
26375;SDS011;30544;42.196;24.336;2023-05-10T04:04:57;57.30;;;16.33;;
26375;SDS011;30544;42.196;24.336;2023-05-10T04:07:24;43.13;;;13.70;;
26375;SDS011;30544;42.196;24.336;2023-05-10T04:09:52;35.75;;;12.80;;
26375;SDS011;30544;42.196;24.336;2023-05-10T04:12:18;27.40;;;11.88;;
26375;SDS011;30544;42.196;24.336;2023-05-10T04:14:45;41.03;;;13.00;;
26375;SDS011;30544;42.196;24.336;2023-05-10T04:17:11;41.88;;;13.98;;
26375;SDS011;30544;42.196;24.336;2023-05-10T04:19:38;34.70;;;13.18;;
26375;SDS011;30544;42.196;24.336;2023-05-10T04:22:04;44.00;;;14.65;;
26375;SDS011;30544;42.196;24.336;2023-05-10T04:24:30;35.17;;;14.10;;
26375;SDS011;30544;42.196;24.336;2023-05-10T04:26:58;39.60;;;16.75;;
26375;SDS011;30544;42.196;24.336;2023-05-10T04:29:25;34.33;;;15.93;;
26375;SDS011;30544;42.196;24.336;2023-05-10T04:31:52;35.67;;;14.00;;
26375;SDS011;30544;42.196;24.336;2023-05-10T04:34:19;31.65;;;13.70;;
26375;SDS011;30544;42.196;24.336;2023-05-10T04:36:46;44.97;;;15.43;;
26375;SDS011;30544;42.196;24.336;2023-05-10T04:39:12;37.53;;;14.48;;
26375;SDS011;30544;42.196;24.336;2023-05-10T04:41:39;34.78;;;13.18;;
26375;SDS011;30544;42.196;24.336;2023-05-10T04:44:07;38.47;;;14.65;;
26375;SDS011;30544;42.196;24.336;2023-05-10T04:46:34;33.58;;;14.27;;
26375;SDS011;30544;42.196;24.336;2023-05-10T04:49:00;29.25;;;12.82;;
26375;SDS011;30544;42.196;24.336;2023-05-10T04:51:27;32.90;;;13.93;;
26375;SDS011;30544;42.196;24.336;2023-05-10T04:53:53;30.95;;;13.70;;
26375;SDS011;30544;42.196;24.336;2023-05-10T04:56:20;37.42;;;14.23;;
26375;SDS011;30544;42.196;24.336;2023-05-10T04:58:47;36.63;;;13.35;;
26375;SDS011;30544;42.196;24.336;2023-05-10T05:01:14;50.70;;;14.02;;
26375;SDS011;30544;42.196;24.336;2023-05-10T05:03:41;42.28;;;15.05;;
26375;SDS011;30544;42.196;24.336;2023-05-10T05:06:07;35.72;;;13.40;;
26375;SDS011;30544;42.196;24.336;2023-05-10T05:08:34;28.17;;;12.10;;
26375;SDS011;30544;42.196;24.336;2023-05-10T05:11:00;29.25;;;12.55;;
26375;SDS011;30544;42.196;24.336;2023-05-10T05:13:27;27.65;;;11.85;;
26375;SDS011;30544;42.196;24.336;2023-05-10T05:15:53;24.80;;;11.07;;
26375;SDS011;30544;42.196;24.336;2023-05-10T05:18:21;27.52;;;12.30;;
26375;SDS011;30544;42.196;24.336;2023-05-10T05:20:48;33.92;;;13.35;;
26375;SDS011;30544;42.196;24.336;2023-05-10T05:23:14;30.88;;;12.88;;
26375;SDS011;30544;42.196;24.336;2023-05-10T05:25:41;29.63;;;13.10;;
26375;SDS011;30544;42.196;24.336;2023-05-10T05:28:08;33.70;;;12.85;;
26375;SDS011;30544;42.196;24.336;2023-05-10T05:30:34;25.27;;;11.82;;
26375;SDS011;30544;42.196;24.336;2023-05-10T05:33:01;33.28;;;13.07;;
26375;SDS011;30544;42.196;24.336;2023-05-10T05:35:29;25.83;;;11.63;;
26375;SDS011;30544;42.196;24.336;2023-05-10T05:37:55;28.20;;;11.65;;
26375;SDS011;30544;42.196;24.336;2023-05-10T05:40:22;30.27;;;12.77;;
26375;SDS011;30544;42.196;24.336;2023-05-10T05:42:48;31.38;;;12.52;;
26375;SDS011;30544;42.196;24.336;2023-05-10T05:45:15;36.67;;;13.82;;
26375;SDS011;30544;42.196;24.336;2023-05-10T05:47:41;35.10;;;14.35;;
26375;SDS011;30544;42.196;24.336;2023-05-10T05:50:08;33.92;;;13.57;;
26375;SDS011;30544;42.196;24.336;2023-05-10T05:52:36;28.05;;;12.93;;
26375;SDS011;30544;42.196;24.336;2023-05-10T05:55:03;29.15;;;13.15;;
26375;SDS011;30544;42.196;24.336;2023-05-10T05:57:29;32.50;;;13.88;;
26375;SDS011;30544;42.196;24.336;2023-05-10T05:59:56;32.97;;;13.73;;
26375;SDS011;30544;42.196;24.336;2023-05-10T06:02:22;25.98;;;13.23;;
26375;SDS011;30544;42.196;24.336;2023-05-10T06:04:49;34.58;;;13.90;;
26375;SDS011;30544;42.196;24.336;2023-05-10T06:07:15;37.58;;;14.77;;
26375;SDS011;30544;42.196;24.336;2023-05-10T06:09:43;29.80;;;14.43;;
26375;SDS011;30544;42.196;24.336;2023-05-10T06:12:09;44.22;;;16.48;;
26375;SDS011;30544;42.196;24.336;2023-05-10T06:14:36;35.17;;;14.27;;
26375;SDS011;30544;42.196;24.336;2023-05-10T06:17:03;44.58;;;17.60;;
26375;SDS011;30544;42.196;24.336;2023-05-10T06:19:30;32.95;;;17.02;;
26375;SDS011;30544;42.196;24.336;2023-05-10T06:21:56;46.33;;;20.00;;
26375;SDS011;30544;42.196;24.336;2023-05-10T06:24:23;34.92;;;19.40;;
26375;SDS011;30544;42.196;24.336;2023-05-10T06:26:51;40.47;;;19.33;;
26375;SDS011;30544;42.196;24.336;2023-05-10T06:29:17;38.45;;;20.58;;
26375;SDS011;30544;42.196;24.336;2023-05-10T06:31:44;36.45;;;19.60;;
26375;SDS011;30544;42.196;24.336;2023-05-10T06:34:10;32.20;;;15.50;;
26375;SDS011;30544;42.196;24.336;2023-05-10T06:36:37;37.05;;;17.60;;
26375;SDS011;30544;42.196;24.336;2023-05-10T06:39:03;30.17;;;16.23;;
26375;SDS011;30544;42.196;24.336;2023-05-10T06:41:30;31.63;;;15.98;;
26375;SDS011;30544;42.196;24.336;2023-05-10T06:43:58;38.08;;;15.60;;
26375;SDS011;30544;42.196;24.336;2023-05-10T06:46:25;28.92;;;14.73;;
26375;SDS011;30544;42.196;24.336;2023-05-10T06:48:51;29.63;;;14.32;;
26375;SDS011;30544;42.196;24.336;2023-05-10T06:51:17;32.08;;;15.75;;
26375;SDS011;30544;42.196;24.336;2023-05-10T06:53:46;37.35;;;16.02;;
26375;SDS011;30544;42.196;24.336;2023-05-10T06:56:12;31.75;;;16.45;;
26375;SDS011;30544;42.196;24.336;2023-05-10T06:58:39;34.22;;;16.33;;
26375;SDS011;30544;42.196;24.336;2023-05-10T07:01:07;29.45;;;16.08;;
26375;SDS011;30544;42.196;24.336;2023-05-10T07:03:33;27.48;;;15.40;;
26375;SDS011;30544;42.196;24.336;2023-05-10T07:06:00;32.25;;;15.73;;
26375;SDS011;30544;42.196;24.336;2023-05-10T07:08:28;31.00;;;15.82;;
26375;SDS011;30544;42.196;24.336;2023-05-10T07:10:58;29.00;;;14.75;;
26375;SDS011;30544;42.196;24.336;2023-05-10T07:13:25;19.95;;;13.70;;
26375;SDS011;30544;42.196;24.336;2023-05-10T07:15:51;24.75;;;13.85;;
26375;SDS011;30544;42.196;24.336;2023-05-10T07:18:19;26.90;;;13.57;;
26375;SDS011;30544;42.196;24.336;2023-05-10T07:20:46;16.13;;;11.50;;
26375;SDS011;30544;42.196;24.336;2023-05-10T07:23:12;22.17;;;12.15;;
26375;SDS011;30544;42.196;24.336;2023-05-10T07:25:39;17.30;;;10.20;;
26375;SDS011;30544;42.196;24.336;2023-05-10T07:28:05;24.15;;;11.80;;
26375;SDS011;30544;42.196;24.336;2023-05-10T07:30:31;25.15;;;11.45;;
26375;SDS011;30544;42.196;24.336;2023-05-10T07:32:58;18.02;;;10.85;;
26375;SDS011;30544;42.196;24.336;2023-05-10T07:35:26;19.27;;;10.43;;
26375;SDS011;30544;42.196;24.336;2023-05-10T07:37:53;15.57;;;9.57;;
26375;SDS011;30544;42.196;24.336;2023-05-10T07:40:19;24.08;;;11.00;;
26375;SDS011;30544;42.196;24.336;2023-05-10T07:42:46;32.40;;;13.77;;
26375;SDS011;30544;42.196;24.336;2023-05-10T07:45:12;16.90;;;10.13;;
26375;SDS011;30544;42.196;24.336;2023-05-10T07:47:39;24.63;;;10.05;;
26375;SDS011;30544;42.196;24.336;2023-05-10T07:50:06;50.20;;;16.27;;
26375;SDS011;30544;42.196;24.336;2023-05-10T07:52:34;32.58;;;15.50;;
26375;SDS011;30544;42.196;24.336;2023-05-10T07:55:00;37.80;;;25.40;;
26375;SDS011;30544;42.196;24.336;2023-05-10T07:57:27;57.15;;;31.85;;
26375;SDS011;30544;42.196;24.336;2023-05-10T07:59:53;42.13;;;25.40;;
26375;SDS011;30544;42.196;24.336;2023-05-10T08:02:20;35.78;;;23.52;;
26375;SDS011;30544;42.196;24.336;2023-05-10T08:04:46;57.22;;;29.33;;
26375;SDS011;30544;42.196;24.336;2023-05-10T08:07:13;46.75;;;28.77;;
26375;SDS011;30544;42.196;24.336;2023-05-10T08:09:41;37.85;;;25.85;;
26375;SDS011;30544;42.196;24.336;2023-05-10T08:12:07;44.67;;;27.45;;
26375;SDS011;30544;42.196;24.336;2023-05-10T08:14:34;43.83;;;31.15;;
26375;SDS011;30544;42.196;24.336;2023-05-10T08:17:01;35.55;;;23.70;;
26375;SDS011;30544;42.196;24.336;2023-05-10T08:19:28;45.88;;;38.05;;
26375;SDS011;30544;42.196;24.336;2023-05-10T08:21:54;49.83;;;36.15;;
26375;SDS011;30544;42.196;24.336;2023-05-10T08:24:22;44.80;;;30.92;;
26375;SDS011;30544;42.196;24.336;2023-05-10T08:26:49;119.22;;;108.80;;
26375;SDS011;30544;42.196;24.336;2023-05-10T08:29:16;102.22;;;91.72;;
26375;SDS011;30544;42.196;24.336;2023-05-10T08:31:42;52.60;;;37.10;;
26375;SDS011;30544;42.196;24.336;2023-05-10T08:34:09;63.67;;;56.95;;
26375;SDS011;30544;42.196;24.336;2023-05-10T08:36:35;66.57;;;59.35;;
26375;SDS011;30544;42.196;24.336;2023-05-10T08:39:02;137.77;;;125.78;;
26375;SDS011;30544;42.196;24.336;2023-05-10T08:41:29;85.63;;;77.30;;
26375;SDS011;30544;42.196;24.336;2023-05-10T08:43:57;93.10;;;83.82;;
26375;SDS011;30544;42.196;24.336;2023-05-10T08:46:24;78.55;;;70.15;;
26375;SDS011;30544;42.196;24.336;2023-05-10T08:48:51;68.53;;;59.42;;
26375;SDS011;30544;42.196;24.336;2023-05-10T08:51:18;69.55;;;59.25;;
26375;SDS011;30544;42.196;24.336;2023-05-10T08:53:46;68.30;;;61.50;;
26375;SDS011;30544;42.196;24.336;2023-05-10T08:56:13;87.30;;;78.68;;
26375;SDS011;30544;42.196;24.336;2023-05-10T08:58:40;143.15;;;130.82;;
26375;SDS011;30544;42.196;24.336;2023-05-10T09:01:08;162.93;;;149.13;;
26375;SDS011;30544;42.196;24.336;2023-05-10T09:03:37;348.55;;;318.80;;
26375;SDS011;30544;42.196;24.336;2023-05-10T09:06:04;34.92;;;13.43;;
26375;SDS011;30544;42.196;24.336;2023-05-10T09:08:33;24.63;;;9.55;;
26375;SDS011;30544;42.196;24.336;2023-05-10T09:10:59;20.67;;;9.05;;
26375;SDS011;30544;42.196;24.336;2023-05-10T09:13:26;16.02;;;7.82;;
26375;SDS011;30544;42.196;24.336;2023-05-10T09:15:53;17.33;;;8.20;;
26375;SDS011;30544;42.196;24.336;2023-05-10T09:18:21;11.80;;;8.00;;
26375;SDS011;30544;42.196;24.336;2023-05-10T09:20:48;16.55;;;8.15;;
26375;SDS011;30544;42.196;24.336;2023-05-10T09:23:14;13.48;;;7.40;;
26375;SDS011;30544;42.196;24.336;2023-05-10T09:25:41;13.13;;;7.85;;
26375;SDS011;30544;42.196;24.336;2023-05-10T09:28:08;17.48;;;8.40;;
26375;SDS011;30544;42.196;24.336;2023-05-10T09:30:34;17.00;;;7.55;;
26375;SDS011;30544;42.196;24.336;2023-05-10T09:33:01;13.18;;;8.13;;
26375;SDS011;30544;42.196;24.336;2023-05-10T09:35:30;14.45;;;7.68;;
26375;SDS011;30544;42.196;24.336;2023-05-10T09:37:57;17.77;;;7.63;;
26375;SDS011;30544;42.196;24.336;2023-05-10T09:40:24;16.60;;;7.15;;
26375;SDS011;30544;42.196;24.336;2023-05-10T09:42:52;13.13;;;7.78;;
26375;SDS011;30544;42.196;24.336;2023-05-10T09:45:18;16.75;;;7.35;;
26375;SDS011;30544;42.196;24.336;2023-05-10T09:47:45;14.43;;;7.53;;
26375;SDS011;30544;42.196;24.336;2023-05-10T09:50:12;13.52;;;8.10;;
26375;SDS011;30544;42.196;24.336;2023-05-10T09:52:47;20.52;;;8.30;;
26375;SDS011;30544;42.196;24.336;2023-05-10T09:55:13;16.33;;;8.43;;
26375;SDS011;30544;42.196;24.336;2023-05-10T09:57:40;13.80;;;7.75;;
26375;SDS011;30544;42.196;24.336;2023-05-10T10:00:07;16.50;;;8.00;;
26375;SDS011;30544;42.196;24.336;2023-05-10T10:02:35;17.65;;;7.90;;
26375;SDS011;30544;42.196;24.336;2023-05-10T10:05:03;14.43;;;7.53;;
26375;SDS011;30544;42.196;24.336;2023-05-10T10:07:32;14.63;;;6.70;;
26375;SDS011;30544;42.196;24.336;2023-05-10T10:10:00;16.63;;;7.35;;
26375;SDS011;30544;42.196;24.336;2023-05-10T10:12:27;11.70;;;7.63;;
26375;SDS011;30544;42.196;24.336;2023-05-10T10:14:53;19.88;;;7.43;;
26375;SDS011;30544;42.196;24.336;2023-05-10T10:17:21;19.25;;;7.70;;
26375;SDS011;30544;42.196;24.336;2023-05-10T10:19:47;13.15;;;7.47;;
26375;SDS011;30544;42.196;24.336;2023-05-10T10:22:14;9.52;;;6.65;;
26375;SDS011;30544;42.196;24.336;2023-05-10T10:24:41;17.27;;;7.82;;
26375;SDS011;30544;42.196;24.336;2023-05-10T10:27:11;20.15;;;7.90;;
26375;SDS011;30544;42.196;24.336;2023-05-10T10:29:41;15.85;;;6.97;;
26375;SDS011;30544;42.196;24.336;2023-05-10T10:32:12;10.25;;;7.28;;
26375;SDS011;30544;42.196;24.336;2023-05-10T10:34:45;13.05;;;7.78;;
26375;SDS011;30544;42.196;24.336;2023-05-10T10:37:11;13.77;;;7.97;;
26375;SDS011;30544;42.196;24.336;2023-05-10T10:39:38;14.05;;;7.88;;
26375;SDS011;30544;42.196;24.336;2023-05-10T10:42:04;12.82;;;7.43;;
26375;SDS011;30544;42.196;24.336;2023-05-10T10:44:36;20.02;;;8.40;;
26375;SDS011;30544;42.196;24.336;2023-05-10T10:49:50;16.40;;;7.65;;
26375;SDS011;30544;42.196;24.336;2023-05-10T10:52:21;15.85;;;7.05;;
26375;SDS011;30544;42.196;24.336;2023-05-10T10:54:51;17.17;;;6.90;;
26375;SDS011;30544;42.196;24.336;2023-05-10T10:57:18;12.77;;;8.02;;
26375;SDS011;30544;42.196;24.336;2023-05-10T10:59:48;13.07;;;7.40;;
26375;SDS011;30544;42.196;24.336;2023-05-10T11:02:32;15.20;;;8.13;;
26375;SDS011;30544;42.196;24.336;2023-05-10T11:04:58;14.40;;;7.78;;
26375;SDS011;30544;42.196;24.336;2023-05-10T11:07:25;20.55;;;7.60;;
26375;SDS011;30544;42.196;24.336;2023-05-10T11:09:52;11.48;;;7.47;;
26375;SDS011;30544;42.196;24.336;2023-05-10T11:12:18;18.73;;;8.20;;
26375;SDS011;30544;42.196;24.336;2023-05-10T11:14:50;10.93;;;7.53;;
26375;SDS011;30544;42.196;24.336;2023-05-10T11:17:23;14.30;;;7.28;;
26375;SDS011;30544;42.196;24.336;2023-05-10T11:20:09;14.48;;;7.28;;
26375;SDS011;30544;42.196;24.336;2023-05-10T11:22:49;14.18;;;7.68;;
26375;SDS011;30544;42.196;24.336;2023-05-10T11:25:16;12.13;;;7.40;;
26375;SDS011;30544;42.196;24.336;2023-05-10T11:27:42;12.55;;;7.75;;
26375;SDS011;30544;42.196;24.336;2023-05-10T11:30:11;15.40;;;7.78;;
26375;SDS011;30544;42.196;24.336;2023-05-10T11:32:38;12.35;;;7.63;;
26375;SDS011;30544;42.196;24.336;2023-05-10T11:35:08;12.68;;;7.65;;
26375;SDS011;30544;42.196;24.336;2023-05-10T11:37:34;13.77;;;7.28;;
26375;SDS011;30544;42.196;24.336;2023-05-10T11:40:01;18.33;;;7.32;;
26375;SDS011;30544;42.196;24.336;2023-05-10T11:42:30;11.50;;;7.53;;
26375;SDS011;30544;42.196;24.336;2023-05-10T11:44:56;18.75;;;7.85;;
26375;SDS011;30544;42.196;24.336;2023-05-10T11:47:24;14.75;;;7.57;;
26375;SDS011;30544;42.196;24.336;2023-05-10T11:49:50;13.18;;;7.43;;
26375;SDS011;30544;42.196;24.336;2023-05-10T11:52:18;11.63;;;7.35;;
26375;SDS011;30544;42.196;24.336;2023-05-10T11:54:45;16.58;;;8.20;;
26375;SDS011;30544;42.196;24.336;2023-05-10T11:57:12;16.02;;;8.00;;
26375;SDS011;30544;42.196;24.336;2023-05-10T11:59:38;17.38;;;8.32;;
26375;SDS011;30544;42.196;24.336;2023-05-10T12:02:05;11.93;;;7.63;;
26375;SDS011;30544;42.196;24.336;2023-05-10T12:04:33;10.48;;;7.40;;
26375;SDS011;30544;42.196;24.336;2023-05-10T12:06:59;11.85;;;8.05;;
26375;SDS011;30544;42.196;24.336;2023-05-10T12:09:26;19.30;;;8.65;;
26375;SDS011;30544;42.196;24.336;2023-05-10T12:11:54;15.23;;;8.00;;
26375;SDS011;30544;42.196;24.336;2023-05-10T12:14:21;18.05;;;8.77;;
26375;SDS011;30544;42.196;24.336;2023-05-10T12:16:49;15.27;;;7.55;;
26375;SDS011;30544;42.196;24.336;2023-05-10T12:19:18;16.67;;;7.63;;
26375;SDS011;30544;42.196;24.336;2023-05-10T12:21:46;12.60;;;7.72;;
26375;SDS011;30544;42.196;24.336;2023-05-10T12:24:13;10.98;;;7.25;;
26375;SDS011;30544;42.196;24.336;2023-05-10T12:26:41;8.00;;;6.35;;
26375;SDS011;30544;42.196;24.336;2023-05-10T12:29:11;15.23;;;6.57;;
26375;SDS011;30544;42.196;24.336;2023-05-10T12:31:48;10.75;;;6.18;;
26375;SDS011;30544;42.196;24.336;2023-05-10T12:34:22;9.40;;;6.28;;
26375;SDS011;30544;42.196;24.336;2023-05-10T12:36:51;10.57;;;6.30;;
26375;SDS011;30544;42.196;24.336;2023-05-10T12:39:17;16.98;;;8.02;;
26375;SDS011;30544;42.196;24.336;2023-05-10T12:41:44;19.65;;;7.55;;
26375;SDS011;30544;42.196;24.336;2023-05-10T12:44:10;17.63;;;7.60;;
26375;SDS011;30544;42.196;24.336;2023-05-10T12:46:37;11.60;;;7.47;;
26375;SDS011;30544;42.196;24.336;2023-05-10T12:49:03;20.85;;;8.05;;
26375;SDS011;30544;42.196;24.336;2023-05-10T12:51:30;15.35;;;7.80;;
26375;SDS011;30544;42.196;24.336;2023-05-10T12:53:58;11.23;;;7.13;;
26375;SDS011;30544;42.196;24.336;2023-05-10T12:56:24;11.93;;;7.45;;
26375;SDS011;30544;42.196;24.336;2023-05-10T12:58:51;10.35;;;7.25;;
26375;SDS011;30544;42.196;24.336;2023-05-10T13:01:18;11.02;;;7.53;;
26375;SDS011;30544;42.196;24.336;2023-05-10T13:03:45;15.82;;;9.38;;
26375;SDS011;30544;42.196;24.336;2023-05-10T13:06:13;13.75;;;8.65;;
26375;SDS011;30544;42.196;24.336;2023-05-10T13:08:39;16.80;;;9.23;;
26375;SDS011;30544;42.196;24.336;2023-05-10T13:11:07;17.50;;;9.30;;
26375;SDS011;30544;42.196;24.336;2023-05-10T13:13:34;15.20;;;10.00;;
26375;SDS011;30544;42.196;24.336;2023-05-10T13:16:00;15.98;;;9.77;;
26375;SDS011;30544;42.196;24.336;2023-05-10T13:18:26;16.20;;;10.30;;
26375;SDS011;30544;42.196;24.336;2023-05-10T13:20:53;17.83;;;9.80;;
26375;SDS011;30544;42.196;24.336;2023-05-10T13:23:20;12.90;;;9.45;;
26375;SDS011;30544;42.196;24.336;2023-05-10T13:25:46;19.75;;;10.38;;
26375;SDS011;30544;42.196;24.336;2023-05-10T13:28:14;13.45;;;9.52;;
26375;SDS011;30544;42.196;24.336;2023-05-10T13:30:40;16.33;;;9.48;;
26375;SDS011;30544;42.196;24.336;2023-05-10T13:33:07;20.35;;;9.35;;
26375;SDS011;30544;42.196;24.336;2023-05-10T13:35:33;12.50;;;8.95;;
26375;SDS011;30544;42.196;24.336;2023-05-10T13:38:00;14.60;;;9.07;;
26375;SDS011;30544;42.196;24.336;2023-05-10T13:40:26;15.40;;;9.27;;
26375;SDS011;30544;42.196;24.336;2023-05-10T13:42:53;19.02;;;10.05;;
26375;SDS011;30544;42.196;24.336;2023-05-10T13:45:21;13.43;;;9.90;;
26375;SDS011;30544;42.196;24.336;2023-05-10T13:47:47;17.13;;;10.60;;
26375;SDS011;30544;42.196;24.336;2023-05-10T13:50:14;18.10;;;10.90;;
26375;SDS011;30544;42.196;24.336;2023-05-10T13:52:40;21.55;;;10.82;;
26375;SDS011;30544;42.196;24.336;2023-05-10T13:55:07;24.63;;;10.70;;
26375;SDS011;30544;42.196;24.336;2023-05-10T13:57:34;17.35;;;9.48;;
26375;SDS011;30544;42.196;24.336;2023-05-10T14:00:01;15.05;;;9.13;;
26375;SDS011;30544;42.196;24.336;2023-05-10T14:02:29;14.65;;;9.15;;
26375;SDS011;30544;42.196;24.336;2023-05-10T14:04:55;14.88;;;9.65;;
26375;SDS011;30544;42.196;24.336;2023-05-10T14:07:22;17.98;;;9.82;;
26375;SDS011;30544;42.196;24.336;2023-05-10T14:09:48;13.75;;;10.05;;
26375;SDS011;30544;42.196;24.336;2023-05-10T14:12:15;14.93;;;9.88;;
26375;SDS011;30544;42.196;24.336;2023-05-10T14:14:41;16.33;;;10.48;;
26375;SDS011;30544;42.196;24.336;2023-05-10T14:17:08;17.75;;;10.52;;
26375;SDS011;30544;42.196;24.336;2023-05-10T14:19:36;23.27;;;10.35;;
26375;SDS011;30544;42.196;24.336;2023-05-10T14:22:04;26.58;;;11.40;;